createdAt,value
2023-02-08T00:02:26.093Z,99.90
2023-02-08T00:04:56.318Z,99.90
2023-02-08T00:07:26.267Z,99.90
2023-02-08T00:09:57.388Z,99.90
2023-02-08T00:12:24.206Z,99.90
2023-02-08T00:14:50.809Z,99.90
2023-02-08T00:17:19.303Z,99.90
2023-02-08T00:19:46.160Z,99.90
2023-02-08T00:22:16.553Z,99.90
2023-02-08T00:24:43.155Z,99.90
2023-02-08T00:27:10.876Z,99.90
2023-02-08T00:30:03.219Z,99.90
2023-02-08T00:32:34.158Z,99.90
2023-02-08T00:35:00.976Z,99.90
2023-02-08T00:37:31.223Z,99.90
2023-02-08T00:40:00.731Z,99.90
2023-02-08T00:42:28.592Z,99.90
2023-02-08T00:44:59.166Z,99.90
2023-02-08T00:47:25.991Z,99.90
2023-02-08T00:49:55.867Z,99.90
2023-02-08T00:52:24.789Z,99.90
2023-02-08T00:54:55.383Z,99.90
2023-02-08T00:57:22.269Z,99.90
2023-02-08T00:59:48.968Z,99.90
2023-02-08T01:02:16.190Z,99.90
2023-02-08T01:05:01.790Z,99.90
2023-02-08T01:07:30.766Z,99.90
2023-02-08T01:09:57.580Z,99.90
2023-02-08T01:12:24.997Z,99.90
2023-02-08T01:14:51.821Z,99.90
2023-02-08T01:17:18.459Z,99.90
2023-02-08T01:19:47.330Z,99.90
2023-02-08T01:22:17.237Z,99.90
2023-02-08T01:24:50.417Z,99.90
2023-02-08T01:27:22.278Z,99.90
2023-02-08T01:29:48.946Z,99.90
2023-02-08T01:32:16.842Z,99.90
2023-02-08T01:34:46.100Z,99.90
2023-02-08T01:37:16.034Z,99.90
2023-02-08T01:39:45.148Z,99.90
2023-02-08T01:42:22.834Z,99.90
2023-02-08T01:45:24.256Z,99.90
2023-02-08T01:47:57.707Z,99.90
2023-02-08T01:50:34.957Z,99.90
2023-02-08T01:53:05.287Z,99.90
2023-02-08T01:55:37.393Z,99.90
2023-02-08T01:58:12.281Z,99.90
2023-02-08T02:00:43.692Z,99.90
2023-02-08T02:03:15.221Z,99.90
2023-02-08T02:05:45.524Z,99.90
2023-02-08T02:08:13.318Z,99.90
2023-02-08T02:10:46.648Z,99.90
2023-02-08T02:13:26.855Z,99.90
2023-02-08T02:15:55.207Z,99.90
2023-02-08T02:19:01.449Z,99.90
2023-02-08T02:21:46.780Z,99.90
2023-02-08T02:24:37.208Z,99.90
2023-02-08T02:28:01.442Z,99.90
2023-02-08T02:31:07.539Z,99.90
2023-02-08T02:34:04.181Z,99.90
2023-02-08T02:36:57.628Z,99.90
2023-02-08T02:39:27.006Z,99.90
2023-02-08T02:42:17.760Z,99.90
2023-02-08T02:45:03.459Z,99.90
2023-02-08T02:51:03.441Z,99.90
2023-02-08T02:53:41.294Z,99.90
2023-02-08T02:56:20.766Z,99.90
2023-02-08T02:58:55.532Z,99.90
2023-02-08T03:01:49.931Z,99.90
2023-02-08T03:04:21.420Z,99.90
2023-02-08T03:07:15.313Z,99.90
2023-02-08T03:09:57.262Z,99.90
2023-02-08T03:12:42.768Z,99.90
2023-02-08T03:15:36.096Z,99.90
2023-02-08T03:18:19.498Z,99.90
2023-02-08T03:21:04.865Z,99.90
2023-02-08T03:23:40.129Z,99.90
2023-02-08T03:26:26.418Z,99.90
2023-02-08T03:29:01.848Z,99.90
2023-02-08T03:31:32.250Z,99.90
2023-02-08T03:34:12.514Z,99.90
2023-02-08T03:36:42.596Z,99.90
2023-02-08T03:39:14.570Z,99.90
2023-02-08T03:41:46.196Z,99.90
2023-02-08T03:44:26.783Z,99.90
2023-02-08T03:47:02.147Z,99.90
2023-02-08T03:49:34.940Z,99.90
2023-02-08T03:52:08.370Z,99.90
2023-02-08T03:55:08.556Z,99.90
2023-02-08T03:57:43.370Z,99.90
2023-02-08T04:00:13.971Z,99.90
2023-02-08T04:03:16.179Z,99.90
2023-02-08T04:05:47.517Z,99.90
2023-02-08T04:08:21.157Z,99.90
2023-02-08T04:10:48.279Z,99.90
2023-02-08T04:13:14.946Z,99.90
2023-02-08T04:15:47.909Z,99.90
2023-02-08T04:18:18.863Z,99.90
2023-02-08T04:20:51.571Z,99.90
2023-02-08T04:23:19.242Z,99.90
2023-02-08T04:25:50.045Z,99.90
2023-02-08T04:28:17.141Z,99.90
2023-02-08T04:30:49.633Z,99.90
2023-02-08T04:33:18.723Z,99.90
2023-02-08T04:35:46.240Z,99.90
2023-02-08T04:38:14.821Z,99.90
2023-02-08T04:41:11.900Z,99.90
2023-02-08T04:43:38.669Z,99.90
2023-02-08T04:46:07.670Z,99.90
2023-02-08T04:48:37.589Z,99.90
2023-02-08T04:51:07.504Z,99.90
2023-02-08T04:53:39.189Z,99.90
2023-02-08T04:56:08.916Z,99.90
2023-02-08T04:59:05.625Z,99.90
2023-02-08T05:01:41.170Z,99.90
2023-02-08T05:04:12.670Z,99.90
2023-02-08T05:06:39.965Z,99.90
2023-02-08T05:09:12.268Z,99.90
2023-02-08T05:11:42.453Z,99.90
2023-02-08T05:14:09.807Z,99.90
2023-02-08T05:16:36.808Z,99.90
2023-02-08T05:19:03.648Z,99.90
2023-02-08T05:21:32.691Z,99.90
2023-02-08T05:32:41.083Z,99.90
2023-02-08T05:35:22.061Z,99.90
2023-02-08T05:37:51.943Z,99.90
2023-02-08T05:40:19.037Z,99.90
2023-02-08T05:42:46.946Z,99.90
2023-02-08T05:45:14.404Z,99.90
2023-02-08T05:47:42.171Z,99.90
2023-02-08T05:50:10.803Z,99.90
2023-02-08T05:52:39.713Z,99.90
2023-02-08T05:55:09.263Z,99.90
2023-02-08T05:57:42.181Z,99.90
2023-02-08T06:00:09.673Z,99.90
2023-02-08T06:02:42.899Z,99.90
2023-02-08T06:05:10.436Z,99.90
2023-02-08T06:07:37.275Z,99.90
2023-02-08T06:10:04.572Z,99.90
2023-02-08T06:12:31.495Z,99.90
2023-02-08T06:15:03.403Z,99.90
2023-02-08T06:17:37.891Z,99.90
2023-02-08T06:20:33.363Z,99.90
2023-02-08T06:23:02.744Z,99.90
2023-02-08T06:25:30.562Z,99.90
2023-02-08T06:28:02.877Z,99.90
2023-02-08T06:30:31.825Z,99.90
2023-02-08T06:33:18.740Z,99.90
2023-02-08T06:35:52.546Z,99.90
2023-02-08T06:38:20.548Z,99.90
2023-02-08T06:40:49.094Z,99.90
2023-02-08T06:43:20.619Z,99.90
2023-02-08T06:45:56.266Z,99.90
2023-02-08T06:48:48.516Z,99.90
2023-02-08T06:51:15.468Z,99.90
2023-02-08T06:53:49.331Z,99.90
2023-02-08T06:56:35.578Z,99.90
2023-02-08T06:59:13.772Z,99.90
2023-02-08T07:01:41.864Z,99.90
2023-02-08T07:04:09.760Z,99.90
2023-02-08T07:06:40.025Z,99.90
2023-02-08T07:09:06.992Z,99.90
2023-02-08T07:11:38.787Z,99.90
2023-02-08T07:14:14.414Z,99.90
2023-02-08T07:16:45.838Z,99.90
2023-02-08T07:19:21.267Z,99.90
2023-02-08T07:21:48.886Z,99.90
2023-02-08T07:24:18.001Z,99.90
2023-02-08T07:26:44.924Z,99.90
2023-02-08T07:29:13.748Z,99.90
2023-02-08T07:31:45.094Z,99.90
2023-02-08T07:34:13.548Z,99.90
2023-02-08T07:36:56.836Z,99.90
2023-02-08T07:39:26.054Z,99.90
2023-02-08T07:41:55.208Z,99.90
2023-02-08T07:44:28.739Z,99.90
2023-02-08T07:55:46.252Z,99.90
2023-02-08T07:58:15.989Z,99.90
2023-02-08T08:00:43.982Z,99.90
2023-02-08T08:03:11.968Z,99.90
2023-02-08T08:05:42.539Z,99.90
2023-02-08T08:08:10.368Z,99.90
2023-02-08T08:10:39.731Z,99.90
2023-02-08T08:13:10.103Z,99.90
2023-02-08T08:15:41.906Z,99.90
2023-02-08T08:18:11.929Z,99.90
2023-02-08T08:20:39.236Z,99.90
2023-02-08T08:23:06.434Z,99.90
2023-02-08T08:25:33.714Z,99.90
2023-02-08T08:28:01.356Z,99.90
2023-02-08T08:30:30.725Z,99.90
2023-02-08T08:33:08.664Z,99.90
2023-02-08T08:35:40.269Z,99.90
2023-02-08T08:38:13.614Z,99.90
2023-02-08T08:40:43.630Z,99.90
2023-02-08T08:43:15.741Z,99.90
2023-02-08T08:48:47.289Z,99.90
2023-02-08T08:51:15.470Z,99.90
2023-02-08T08:53:42.644Z,99.90
2023-02-08T08:56:09.515Z,99.90
2023-02-08T08:58:37.318Z,99.90
2023-02-08T09:01:04.207Z,99.90
2023-02-08T09:03:37.840Z,99.90
2023-02-08T09:06:09.811Z,99.90
2023-02-08T09:08:38.286Z,99.90
2023-02-08T09:11:10.136Z,99.90
2023-02-08T09:13:37.722Z,99.90
2023-02-08T09:16:22.372Z,99.90
2023-02-08T09:19:15.796Z,99.90
2023-02-08T09:21:52.246Z,99.90
2023-02-08T09:24:19.759Z,99.90
2023-02-08T09:26:53.157Z,99.90
2023-02-08T09:29:22.009Z,99.90
2023-02-08T09:31:59.723Z,99.90
2023-02-08T09:34:30.411Z,99.90
2023-02-08T09:37:28.054Z,99.90
2023-02-08T09:40:14.688Z,99.90
2023-02-08T09:43:09.061Z,99.90
2023-02-08T09:46:16.962Z,99.90
2023-02-08T09:48:52.160Z,99.90
2023-02-08T09:51:31.761Z,99.90
2023-02-08T09:54:18.616Z,99.90
2023-02-08T09:56:49.465Z,99.90
2023-02-08T09:59:57.737Z,99.30
2023-02-08T10:02:36.529Z,99.40
2023-02-08T10:05:16.726Z,99.70
2023-02-08T10:07:48.840Z,99.50
2023-02-08T10:10:31.193Z,98.60
2023-02-08T10:13:25.703Z,97.00
2023-02-08T10:16:49.813Z,97.10
2023-02-08T10:19:58.141Z,96.20
2023-02-08T10:22:54.305Z,94.70
2023-02-08T10:25:41.304Z,94.00
2023-02-08T10:28:42.017Z,94.50
2023-02-08T10:31:48.302Z,94.40
2023-02-08T10:34:53.014Z,93.70
2023-02-08T10:37:45.729Z,94.40
2023-02-08T10:40:36.982Z,93.70
2023-02-08T10:43:40.282Z,92.90
2023-02-08T10:46:29.980Z,92.90
2023-02-08T10:49:37.100Z,92.00
2023-02-08T10:52:18.360Z,90.70
2023-02-08T10:54:45.225Z,90.30
2023-02-08T10:57:38.802Z,90.00
2023-02-08T11:00:27.577Z,89.70
2023-02-08T11:03:05.064Z,88.70
2023-02-08T11:05:35.632Z,87.90
2023-02-08T11:08:21.983Z,90.90
2023-02-08T11:10:57.932Z,89.40
2023-02-08T11:13:54.101Z,87.70
2023-02-08T11:16:26.320Z,88.50
2023-02-08T11:19:04.702Z,88.90
2023-02-08T11:21:38.388Z,90.10
2023-02-08T11:24:17.834Z,86.30
2023-02-08T11:26:44.671Z,85.80
2023-02-08T11:29:30.194Z,85.60
2023-02-08T11:32:16.730Z,84.10
2023-02-08T11:34:46.281Z,83.50
2023-02-08T11:37:27.338Z,82.80
2023-02-08T11:39:57.192Z,83.00
2023-02-08T11:42:31.280Z,81.90
2023-02-08T11:44:59.174Z,82.80
2023-02-08T11:47:30.533Z,81.50
2023-02-08T11:50:03.387Z,80.30
2023-02-08T11:52:37.251Z,80.60
2023-02-08T11:55:26.888Z,81.40
2023-02-08T11:58:01.454Z,81.70
2023-02-08T12:00:39.352Z,83.20
2023-02-08T12:03:19.649Z,82.20
2023-02-08T12:05:59.055Z,80.00
2023-02-08T12:08:58.373Z,79.00
2023-02-08T12:11:44.162Z,79.70
2023-02-08T12:14:29.658Z,79.30
2023-02-08T12:17:20.110Z,77.40
2023-02-08T12:20:07.477Z,78.00
2023-02-08T12:22:42.298Z,78.60
2023-02-08T12:28:21.977Z,76.60
2023-02-08T12:31:12.237Z,78.20
2023-02-08T12:34:10.106Z,77.00
2023-02-08T12:37:23.031Z,76.20
2023-02-08T12:40:36.259Z,77.00
2023-02-08T12:43:13.292Z,75.80
2023-02-08T12:45:57.802Z,74.80
2023-02-08T12:48:51.968Z,75.50
2023-02-08T12:51:34.244Z,72.10
2023-02-08T12:54:35.800Z,71.80
2023-02-08T12:57:06.413Z,74.60
2023-02-08T12:59:37.743Z,71.30
2023-02-08T13:02:19.507Z,71.50
2023-02-08T13:04:53.389Z,72.60
2023-02-08T13:07:28.700Z,70.70
2023-02-08T13:10:07.994Z,71.10
2023-02-08T13:12:44.994Z,71.10
2023-02-08T13:18:38.330Z,71.10
2023-02-08T13:30:19.001Z,70.50
2023-02-08T13:32:50.146Z,68.00
2023-02-08T13:35:31.078Z,69.50
2023-02-08T13:38:16.049Z,69.70
2023-02-08T13:40:45.832Z,68.80
2023-02-08T13:43:35.500Z,70.40
2023-02-08T13:46:05.981Z,68.10
2023-02-08T13:48:48.789Z,70.30
2023-02-08T13:51:33.312Z,68.50
2023-02-08T13:54:00.100Z,67.40
2023-02-08T13:56:47.630Z,69.10
2023-02-08T13:59:34.709Z,68.70
2023-02-08T14:02:18.817Z,68.80
2023-02-08T14:04:49.688Z,70.50
2023-02-08T14:07:42.732Z,70.10
2023-02-08T14:10:14.453Z,70.10
2023-02-08T14:16:33.378Z,68.10
2023-02-08T14:19:03.696Z,69.40
2023-02-08T14:21:44.309Z,72.10
2023-02-08T14:24:43.601Z,72.30
2023-02-08T14:27:26.372Z,72.30
2023-02-08T14:29:58.190Z,73.80
2023-02-08T14:32:28.109Z,72.10
2023-02-08T14:35:06.626Z,72.60
2023-02-08T14:37:38.807Z,73.70
2023-02-08T14:40:22.934Z,72.60
2023-02-08T14:42:59.938Z,74.30
2023-02-08T14:45:44.438Z,73.40
2023-02-08T14:48:27.390Z,73.60
2023-02-08T14:51:09.038Z,75.50
2023-02-08T14:53:48.128Z,75.00
2023-02-08T14:56:30.985Z,74.70
2023-02-08T14:59:15.473Z,75.10
2023-02-08T15:01:52.854Z,75.10
2023-02-08T15:04:20.491Z,76.30
2023-02-08T15:07:08.196Z,77.70
2023-02-08T15:09:40.127Z,77.50
2023-02-08T15:12:25.594Z,77.90
2023-02-08T15:14:54.745Z,78.40
2023-02-08T15:17:34.680Z,78.70
2023-02-08T15:20:05.472Z,79.10
2023-02-08T15:22:41.974Z,79.40
2023-02-08T15:25:27.528Z,81.10
2023-02-08T15:28:02.544Z,80.50
2023-02-08T15:30:34.575Z,81.10
2023-02-08T15:33:10.586Z,82.00
2023-02-08T15:35:37.403Z,82.70
2023-02-08T15:38:08.830Z,82.00
2023-02-08T15:40:35.501Z,82.50
2023-02-08T15:43:08.145Z,82.30
2023-02-08T15:45:38.035Z,82.70
2023-02-08T15:48:10.093Z,83.00
2023-02-08T15:50:39.395Z,83.80
2023-02-08T15:53:14.672Z,84.00
2023-02-08T15:55:49.658Z,84.30
2023-02-08T15:58:39.669Z,84.10
2023-02-08T16:01:07.665Z,84.80
2023-02-08T16:03:36.081Z,85.10
2023-02-08T16:06:06.446Z,85.10
2023-02-08T16:09:00.014Z,85.00
2023-02-08T16:11:32.984Z,85.60
2023-02-08T16:14:05.490Z,85.80
2023-02-08T16:16:51.965Z,86.50
2023-02-08T16:19:18.592Z,86.90
2023-02-08T16:21:48.334Z,87.10
2023-02-08T16:24:16.102Z,86.70
2023-02-08T16:26:53.723Z,87.70
2023-02-08T16:29:30.408Z,88.30
2023-02-08T16:32:11.057Z,88.50
2023-02-08T16:34:40.283Z,88.60
2023-02-08T16:37:31.116Z,89.50
2023-02-08T16:40:30.098Z,89.50
2023-02-08T16:43:17.863Z,90.50
2023-02-08T16:45:44.897Z,90.70
2023-02-08T16:48:35.382Z,90.80
2023-02-08T16:51:42.412Z,90.80
2023-02-08T16:54:13.759Z,90.80
2023-02-08T16:56:41.801Z,90.80
2023-02-08T16:59:11.507Z,90.60
2023-02-08T17:01:38.709Z,90.80
2023-02-08T17:04:06.591Z,90.60
2023-02-08T17:06:35.741Z,89.90
2023-02-08T17:09:05.906Z,90.00
2023-02-08T17:11:32.591Z,90.00
2023-02-08T17:13:59.616Z,90.10
2023-02-08T17:16:38.621Z,90.30
2023-02-08T17:19:06.365Z,90.30
2023-02-08T17:21:32.998Z,90.70
2023-02-08T17:24:00.876Z,91.00
2023-02-08T17:26:35.650Z,91.10
2023-02-08T17:29:03.117Z,91.80
2023-02-08T17:31:31.884Z,92.50
2023-02-08T17:34:03.688Z,93.00
2023-02-08T17:36:39.342Z,93.20
2023-02-08T17:39:31.431Z,93.70
2023-02-08T17:41:58.246Z,94.30
2023-02-08T17:44:27.631Z,94.50
2023-02-08T17:46:54.379Z,95.10
2023-02-08T17:49:22.687Z,95.30
2023-02-08T17:51:52.753Z,95.80
2023-02-08T17:54:27.680Z,96.30
2023-02-08T17:56:57.832Z,96.80
2023-02-08T17:59:26.664Z,97.20
2023-02-08T18:01:53.390Z,97.20
2023-02-08T18:04:20.535Z,97.30
2023-02-08T18:06:53.644Z,97.50
2023-02-08T18:09:22.535Z,97.80
2023-02-08T18:11:49.319Z,97.30
2023-02-08T18:14:17.808Z,97.30
2023-02-08T18:16:44.470Z,97.80
2023-02-08T18:19:36.776Z,98.40
2023-02-08T18:22:07.807Z,98.80
2023-02-08T18:24:36.502Z,99.00
2023-02-08T18:27:06.810Z,99.20
2023-02-08T18:29:34.851Z,99.60
2023-02-08T18:32:02.409Z,99.40
2023-02-08T18:34:29.082Z,99.60
2023-02-08T18:36:55.964Z,99.90
2023-02-08T18:39:29.240Z,99.90
2023-02-08T18:42:00.406Z,99.90
2023-02-08T18:44:27.026Z,99.90
2023-02-08T18:46:56.148Z,99.90
2023-02-08T18:49:23.088Z,99.90
2023-02-08T18:51:52.255Z,99.90
2023-02-08T18:54:18.865Z,99.90
2023-02-08T18:56:48.847Z,99.90
2023-02-08T18:59:15.494Z,99.90
2023-02-08T19:01:45.785Z,99.90
2023-02-08T19:04:12.466Z,99.90
2023-02-08T19:06:44.336Z,99.90
2023-02-08T19:09:14.926Z,99.90
2023-02-08T19:11:44.916Z,99.90
2023-02-08T19:14:13.922Z,99.90
2023-02-08T19:25:16.993Z,99.90
2023-02-08T19:27:43.605Z,99.90
2023-02-08T19:30:14.952Z,99.90
2023-02-08T19:32:44.750Z,99.90
2023-02-08T19:35:16.454Z,99.90
2023-02-08T19:37:44.905Z,99.90
2023-02-08T19:40:15.914Z,99.90
2023-02-08T19:42:51.806Z,99.90
2023-02-08T19:45:21.880Z,99.90
2023-02-08T19:47:57.981Z,99.90
2023-02-08T19:50:24.881Z,99.90
2023-02-08T19:52:56.183Z,99.90
2023-02-08T19:55:25.239Z,99.90
2023-02-08T19:57:59.797Z,99.90
2023-02-08T20:00:26.691Z,99.90
2023-02-08T20:02:56.938Z,99.90
2023-02-08T20:05:25.985Z,99.90
2023-02-08T20:07:56.016Z,99.90
2023-02-08T20:10:22.636Z,99.90
2023-02-08T20:12:49.298Z,99.90
2023-02-08T20:15:18.443Z,99.90
2023-02-08T20:17:47.104Z,99.90
2023-02-08T20:20:16.207Z,99.90
2023-02-08T20:22:48.302Z,99.90
2023-02-08T20:25:15.007Z,99.90
2023-02-08T20:27:44.818Z,99.90
2023-02-08T20:30:12.155Z,99.90
2023-02-08T20:32:39.410Z,99.90
2023-02-08T20:35:09.902Z,99.90
2023-02-08T20:37:38.927Z,99.90
2023-02-08T20:40:14.305Z,99.90
2023-02-08T20:43:11.434Z,99.90
2023-02-08T20:45:41.317Z,99.90
2023-02-08T20:48:08.381Z,99.90
2023-02-08T20:50:35.417Z,99.90
2023-02-08T20:56:12.994Z,99.90
2023-02-08T20:58:43.923Z,99.90
2023-02-08T21:01:26.942Z,99.90
2023-02-08T21:03:56.121Z,99.90
2023-02-08T21:06:31.690Z,99.90
2023-02-08T21:09:02.057Z,99.90
2023-02-08T21:11:30.622Z,99.90
2023-02-08T21:14:05.009Z,99.90
2023-02-08T21:16:34.724Z,99.90
2023-02-08T21:19:03.179Z,99.90
2023-02-08T21:21:34.490Z,99.90
2023-02-08T21:24:03.207Z,99.90
2023-02-08T21:26:30.303Z,99.90
2023-02-08T21:29:06.162Z,99.90
2023-02-08T21:31:37.037Z,99.90
2023-02-08T21:34:05.429Z,99.90
2023-02-08T21:36:35.046Z,99.90
2023-02-08T21:39:02.081Z,99.90
2023-02-08T21:41:31.869Z,99.90
2023-02-08T21:44:09.503Z,99.90
2023-02-08T21:46:38.554Z,99.90
2023-02-08T21:52:01.011Z,99.90
2023-02-08T21:54:40.784Z,99.90
2023-02-08T21:57:20.894Z,99.90
2023-02-08T21:59:50.728Z,99.90
2023-02-08T22:02:24.793Z,99.90
2023-02-08T22:05:14.490Z,99.90
2023-02-08T22:07:46.039Z,99.90
2023-02-08T22:10:15.328Z,99.90
2023-02-08T22:12:42.230Z,99.90
2023-02-08T22:15:11.113Z,99.90
2023-02-08T22:17:38.262Z,99.90
2023-02-08T22:20:15.441Z,99.90
2023-02-08T22:22:44.951Z,99.90
2023-02-08T22:25:12.147Z,99.90
2023-02-08T22:27:41.108Z,99.90
2023-02-08T22:30:09.775Z,99.90
2023-02-08T22:32:37.193Z,99.90
2023-02-08T22:38:07.754Z,99.90
2023-02-08T22:43:42.850Z,99.90
2023-02-08T22:46:18.588Z,99.90
2023-02-08T22:48:51.268Z,99.90
2023-02-08T22:51:18.460Z,99.90
2023-02-08T22:53:49.602Z,99.90
2023-02-08T22:56:19.280Z,99.90
2023-02-08T23:01:52.992Z,99.90
2023-02-08T23:07:01.137Z,99.90
2023-02-08T23:09:30.350Z,99.90
2023-02-08T23:11:57.133Z,99.90
2023-02-08T23:14:29.155Z,99.90
2023-02-08T23:16:57.323Z,99.90
2023-02-08T23:19:24.286Z,99.90
2023-02-08T23:22:15.794Z,99.90
2023-02-08T23:24:43.203Z,99.90
2023-02-08T23:27:13.464Z,99.90
2023-02-08T23:29:40.199Z,99.90
2023-02-08T23:32:06.985Z,99.90
2023-02-08T23:34:34.690Z,99.90
2023-02-08T23:37:01.475Z,99.90
2023-02-08T23:39:35.380Z,99.90
2023-02-08T23:42:02.420Z,99.90
2023-02-08T23:44:29.271Z,99.90
2023-02-08T23:46:56.042Z,99.90
2023-02-08T23:49:24.974Z,99.90
2023-02-08T23:51:56.542Z,99.90
2023-02-08T23:54:23.711Z,99.90
